Time;durP1;ratioP1;P1;durP2;ratioP2;P2;SDS_P1;SDS_P2;PMS_P1;PMS_P2;Temp;Humidity;BMP_temperature;BMP_pressure;BME280_temperature;BME280_humidity;BME280_pressure;Samples;Min_cycle;Max_cycle;Signal;HPM_P1;HPM_P2
2022/10/23 05:18:20;;;;;;;;;3.67;3.67;;;;;19.97;61.45;100448.56;5103797;27;45781;-79
2022/10/23 05:20:50;;;;;;;;;3.00;3.00;;;;;20.11;61.94;100436.41;4988835;27;46088;-81
2022/10/23 05:23:20;;;;;;;;;2.00;2.00;;;;;20.33;61.95;100436.09;4985436;27;45513;-82
2022/10/23 05:25:45;;;;;;;;;2.00;2.00;;;;;20.57;61.45;100421.13;4985135;27;45591;-83
2022/10/23 05:28:10;;;;;;;;;2.00;2.00;;;;;20.86;61.11;100415.50;4986356;27;53795;-84
2022/10/23 05:30:36;;;;;;;;;2.00;2.00;;;;;21.14;60.62;100414.47;4984432;27;49816;-82
2022/10/23 05:33:02;;;;;;;;;2.00;2.00;;;;;21.41;60.70;100421.50;4980379;27;45794;-82
2022/10/23 05:35:28;;;;;;;;;3.00;3.00;;;;;21.69;60.21;100418.56;4984470;27;45443;-84
2022/10/23 05:37:56;;;;;;;;;3.00;2.00;;;;;21.95;60.07;100419.53;4983103;27;46274;-83
2022/10/23 05:40:21;;;;;;;;;3.00;3.00;;;;;22.19;59.18;100410.59;4986658;27;47347;-83
2022/10/23 05:42:47;;;;;;;;;3.00;3.00;;;;;22.40;58.60;100394.91;4985992;27;45445;-86
2022/10/23 05:45:12;;;;;;;;;2.33;2.00;;;;;22.61;58.46;100397.09;4983035;28;48041;-93
2022/10/23 05:47:37;;;;;;;;;2.00;2.00;;;;;22.79;57.99;100407.72;4986111;27;54425;-92
2022/10/23 05:50:03;;;;;;;;;3.00;3.00;;;;;22.95;57.52;100404.16;4989836;27;45516;-94
2022/10/23 05:52:28;;;;;;;;;2.00;2.00;;;;;23.13;57.34;100405.81;4984821;27;46510;-92
2022/10/23 05:54:54;;;;;;;;;3.00;3.00;;;;;23.25;57.01;100420.63;4990081;27;53282;-93
2022/10/23 05:57:19;;;;;;;;;3.00;2.00;;;;;23.41;56.76;100422.47;4985807;27;47229;-92
2022/10/23 05:59:44;;;;;;;;;2.00;2.00;;;;;23.54;56.52;100416.50;4985649;27;53345;-85
2022/10/23 06:02:09;;;;;;;;;1.33;1.33;;;;;23.67;55.96;100415.91;4987304;27;46295;-88
2022/10/23 06:04:35;;;;;;;;;2.67;2.67;;;;;23.77;55.97;100421.13;4999467;27;45724;-87
2022/10/23 06:07:01;;;;;;;;;1.67;1.67;;;;;23.87;55.77;100418.16;4991168;27;62041;-92
2022/10/23 06:09:27;;;;;;;;;1.00;1.00;;;;;23.96;55.60;100418.97;4993315;27;45569;-83
2022/10/23 06:11:52;;;;;;;;;1.00;1.00;;;;;24.04;55.31;100423.50;4996290;27;46619;-86
2022/10/23 06:14:17;;;;;;;;;2.33;2.33;;;;;24.12;55.42;100425.34;4987778;27;53027;-85
2022/10/23 06:16:43;;;;;;;;;2.00;2.00;;;;;24.18;55.07;100428.19;5019532;27;46105;-82
2022/10/23 06:19:10;;;;;;;;;2.00;2.00;;;;;24.24;55.16;100417.63;5000539;27;45453;-82
2022/10/23 06:21:36;;;;;;;;;3.00;3.00;;;;;24.32;54.76;100423.00;5000428;27;45479;-82
2022/10/23 06:24:02;;;;;;;;;1.33;1.33;;;;;24.39;54.53;100420.41;5005782;27;45522;-83
2022/10/23 06:26:28;;;;;;;;;1.00;1.00;;;;;24.43;54.49;100405.44;4993748;27;46063;-82
2022/10/23 06:28:53;;;;;;;;;2.00;2.00;;;;;24.47;54.44;100391.31;4989599;27;52765;-79
2022/10/23 06:31:19;;;;;;;;;2.00;2.00;;;;;24.53;54.44;100391.63;4974312;27;45391;-88
2022/10/23 06:33:44;;;;;;;;;2.00;2.00;;;;;24.56;54.15;100378.53;4974690;27;45367;-82
2022/10/23 06:36:10;;;;;;;;;3.00;3.00;;;;;24.60;54.20;100376.28;4974186;27;45476;-87
2022/10/23 06:38:39;;;;;;;;;2.00;2.00;;;;;24.65;53.70;100375.72;4981602;27;45427;-82
2022/10/23 06:41:07;;;;;;;;;2.00;2.00;;;;;24.68;53.86;100383.50;4975114;27;45899;-88
2022/10/23 06:43:32;;;;;;;;;2.00;2.00;;;;;24.71;53.82;100388.56;4976082;27;45426;-85
2022/10/23 06:46:03;;;;;;;;;3.00;1.67;;;;;24.72;53.74;100382.94;4982902;27;45691;-87
2022/10/23 06:48:28;;;;;;;;;2.00;1.00;;;;;24.74;53.36;100386.31;4978060;27;45943;-82
2022/10/23 06:50:54;;;;;;;;;2.33;2.33;;;;;24.77;53.56;100395.13;4991418;28;45539;-87
2022/10/23 06:53:22;;;;;;;;;1.67;1.67;;;;;24.78;53.33;100381.38;4975444;27;45482;-88
2022/10/23 06:55:48;;;;;;;;;3.00;3.00;;;;;24.78;53.48;100375.09;4986890;28;46424;-83
2022/10/23 06:58:13;;;;;;;;;1.00;1.00;;;;;24.83;53.36;100380.84;4975854;27;45538;-80
2022/10/23 07:00:38;;;;;;;;;2.67;1.00;;;;;24.84;53.19;100369.78;4987091;27;45358;-80
2022/10/23 07:03:04;;;;;;;;;1.67;1.67;;;;;24.84;52.97;100355.38;4994369;27;45507;-82
2022/10/23 07:05:31;;;;;;;;;2.00;2.00;;;;;24.89;53.40;100365.69;4993891;27;45370;-76
